sensor_id;sensor_type;location;lat;lon;timestamp;P1;durP1;ratioP1;P2;durP2;ratioP2
70560;SDS011;58109;53.570;10.084;2023-02-10T00:00:01;48.20;;;21.70;;
70560;SDS011;58109;53.570;10.084;2023-02-10T00:02:28;61.05;;;23.60;;
70560;SDS011;58109;53.570;10.084;2023-02-10T00:04:56;57.20;;;22.58;;
70560;SDS011;58109;53.570;10.084;2023-02-10T00:07:24;70.73;;;24.07;;
70560;SDS011;58109;53.570;10.084;2023-02-10T00:09:49;62.60;;;22.27;;
70560;SDS011;58109;53.570;10.084;2023-02-10T00:12:17;70.60;;;22.92;;
70560;SDS011;58109;53.570;10.084;2023-02-10T00:14:45;56.73;;;22.87;;
70560;SDS011;58109;53.570;10.084;2023-02-10T00:17:10;67.03;;;22.70;;
70560;SDS011;58109;53.570;10.084;2023-02-10T00:19:40;60.47;;;22.45;;
70560;SDS011;58109;53.570;10.084;2023-02-10T00:22:05;60.27;;;21.93;;
70560;SDS011;58109;53.570;10.084;2023-02-10T00:24:30;65.03;;;21.93;;
70560;SDS011;58109;53.570;10.084;2023-02-10T00:26:56;62.60;;;23.13;;
70560;SDS011;58109;53.570;10.084;2023-02-10T00:29:21;52.37;;;23.10;;
70560;SDS011;58109;53.570;10.084;2023-02-10T00:31:47;54.43;;;21.40;;
70560;SDS011;58109;53.570;10.084;2023-02-10T00:34:15;61.60;;;22.05;;
70560;SDS011;58109;53.570;10.084;2023-02-10T00:36:41;64.82;;;21.98;;
70560;SDS011;58109;53.570;10.084;2023-02-10T00:39:07;66.47;;;22.20;;
70560;SDS011;58109;53.570;10.084;2023-02-10T00:41:37;63.50;;;25.52;;
70560;SDS011;58109;53.570;10.084;2023-02-10T00:44:03;68.13;;;23.20;;
70560;SDS011;58109;53.570;10.084;2023-02-10T00:46:28;65.80;;;24.30;;
70560;SDS011;58109;53.570;10.084;2023-02-10T00:48:59;61.38;;;21.48;;
70560;SDS011;58109;53.570;10.084;2023-02-10T00:51:26;59.25;;;21.85;;
70560;SDS011;58109;53.570;10.084;2023-02-10T00:53:57;56.97;;;20.98;;
70560;SDS011;58109;53.570;10.084;2023-02-10T00:56:23;57.17;;;21.13;;
70560;SDS011;58109;53.570;10.084;2023-02-10T00:58:53;54.42;;;21.50;;
70560;SDS011;58109;53.570;10.084;2023-02-10T01:01:20;57.78;;;20.23;;
70560;SDS011;58109;53.570;10.084;2023-02-10T01:03:48;73.88;;;24.55;;
70560;SDS011;58109;53.570;10.084;2023-02-10T01:06:14;60.93;;;22.10;;
70560;SDS011;58109;53.570;10.084;2023-02-10T01:08:40;67.93;;;22.40;;
70560;SDS011;58109;53.570;10.084;2023-02-10T01:11:08;64.17;;;20.83;;
70560;SDS011;58109;53.570;10.084;2023-02-10T01:13:35;68.47;;;23.42;;
70560;SDS011;58109;53.570;10.084;2023-02-10T01:16:06;58.20;;;21.35;;
70560;SDS011;58109;53.570;10.084;2023-02-10T01:18:36;56.47;;;21.70;;
70560;SDS011;58109;53.570;10.084;2023-02-10T01:21:09;57.17;;;22.27;;
70560;SDS011;58109;53.570;10.084;2023-02-10T01:23:36;56.58;;;20.30;;
70560;SDS011;58109;53.570;10.084;2023-02-10T01:26:01;57.97;;;22.10;;
70560;SDS011;58109;53.570;10.084;2023-02-10T01:28:27;48.97;;;20.57;;
70560;SDS011;58109;53.570;10.084;2023-02-10T01:30:55;49.83;;;19.58;;
70560;SDS011;58109;53.570;10.084;2023-02-10T01:33:20;52.37;;;20.40;;
70560;SDS011;58109;53.570;10.084;2023-02-10T01:35:45;51.23;;;19.50;;
70560;SDS011;58109;53.570;10.084;2023-02-10T01:38:13;50.15;;;21.00;;
70560;SDS011;58109;53.570;10.084;2023-02-10T01:40:40;57.28;;;19.23;;
70560;SDS011;58109;53.570;10.084;2023-02-10T01:43:11;49.07;;;19.87;;
70560;SDS011;58109;53.570;10.084;2023-02-10T01:45:39;53.35;;;20.65;;
70560;SDS011;58109;53.570;10.084;2023-02-10T01:48:05;53.13;;;19.20;;
70560;SDS011;58109;53.570;10.084;2023-02-10T01:50:38;61.72;;;20.73;;
70560;SDS011;58109;53.570;10.084;2023-02-10T01:53:25;56.75;;;19.38;;
70560;SDS011;58109;53.570;10.084;2023-02-10T01:55:52;47.97;;;19.33;;
70560;SDS011;58109;53.570;10.084;2023-02-10T01:58:21;55.70;;;20.80;;
70560;SDS011;58109;53.570;10.084;2023-02-10T02:00:51;59.10;;;19.70;;
70560;SDS011;58109;53.570;10.084;2023-02-10T02:03:17;52.33;;;19.40;;
70560;SDS011;58109;53.570;10.084;2023-02-10T02:05:43;51.23;;;18.60;;
70560;SDS011;58109;53.570;10.084;2023-02-10T02:13:21;48.90;;;17.65;;
70560;SDS011;58109;53.570;10.084;2023-02-10T02:15:55;47.55;;;17.85;;
70560;SDS011;58109;53.570;10.084;2023-02-10T02:24:41;44.08;;;15.75;;
70560;SDS011;58109;53.570;10.084;2023-02-10T02:33:10;55.83;;;17.00;;
70560;SDS011;58109;53.570;10.084;2023-02-10T02:35:42;49.67;;;17.30;;
70560;SDS011;58109;53.570;10.084;2023-02-10T02:38:12;58.50;;;19.23;;
70560;SDS011;58109;53.570;10.084;2023-02-10T02:40:37;43.77;;;16.60;;
70560;SDS011;58109;53.570;10.084;2023-02-10T02:43:03;48.30;;;16.30;;
70560;SDS011;58109;53.570;10.084;2023-02-10T02:51:09;50.45;;;18.10;;
70560;SDS011;58109;53.570;10.084;2023-02-10T02:54:21;55.88;;;18.13;;
70560;SDS011;58109;53.570;10.084;2023-02-10T02:57:09;52.17;;;15.80;;
70560;SDS011;58109;53.570;10.084;2023-02-10T02:59:39;42.95;;;17.20;;
70560;SDS011;58109;53.570;10.084;2023-02-10T03:02:09;48.45;;;16.73;;
70560;SDS011;58109;53.570;10.084;2023-02-10T03:04:37;52.20;;;16.40;;
70560;SDS011;58109;53.570;10.084;2023-02-10T03:07:03;46.15;;;16.90;;
70560;SDS011;58109;53.570;10.084;2023-02-10T03:09:29;43.40;;;16.47;;
70560;SDS011;58109;53.570;10.084;2023-02-10T03:11:57;46.15;;;16.80;;
70560;SDS011;58109;53.570;10.084;2023-02-10T03:14:28;41.95;;;17.38;;
70560;SDS011;58109;53.570;10.084;2023-02-10T03:16:58;51.38;;;16.95;;
70560;SDS011;58109;53.570;10.084;2023-02-10T03:19:23;43.88;;;16.25;;
70560;SDS011;58109;53.570;10.084;2023-02-10T03:21:51;47.67;;;17.33;;
70560;SDS011;58109;53.570;10.084;2023-02-10T03:24:19;48.58;;;16.70;;
70560;SDS011;58109;53.570;10.084;2023-02-10T03:26:45;45.78;;;17.10;;
70560;SDS011;58109;53.570;10.084;2023-02-10T03:29:11;48.47;;;17.27;;
70560;SDS011;58109;53.570;10.084;2023-02-10T03:31:37;48.33;;;18.17;;
70560;SDS011;58109;53.570;10.084;2023-02-10T03:34:03;51.27;;;15.30;;
70560;SDS011;58109;53.570;10.084;2023-02-10T03:36:28;56.93;;;17.20;;
70560;SDS011;58109;53.570;10.084;2023-02-10T03:39:00;45.05;;;16.05;;
70560;SDS011;58109;53.570;10.084;2023-02-10T03:41:26;50.85;;;15.80;;
70560;SDS011;58109;53.570;10.084;2023-02-10T03:43:52;46.67;;;17.07;;
70560;SDS011;58109;53.570;10.084;2023-02-10T03:46:17;45.33;;;17.37;;
70560;SDS011;58109;53.570;10.084;2023-02-10T03:48:46;43.85;;;17.60;;
70560;SDS011;58109;53.570;10.084;2023-02-10T03:51:11;49.83;;;17.50;;
70560;SDS011;58109;53.570;10.084;2023-02-10T03:53:41;42.13;;;17.53;;
70560;SDS011;58109;53.570;10.084;2023-02-10T03:56:07;41.90;;;16.17;;
70560;SDS011;58109;53.570;10.084;2023-02-10T03:58:35;52.30;;;18.23;;
70560;SDS011;58109;53.570;10.084;2023-02-10T04:01:07;51.53;;;17.13;;
70560;SDS011;58109;53.570;10.084;2023-02-10T04:03:34;49.45;;;15.73;;
70560;SDS011;58109;53.570;10.084;2023-02-10T04:05:59;46.97;;;17.20;;
70560;SDS011;58109;53.570;10.084;2023-02-10T04:08:27;44.80;;;17.52;;
70560;SDS011;58109;53.570;10.084;2023-02-10T04:10:55;56.08;;;17.35;;
70560;SDS011;58109;53.570;10.084;2023-02-10T04:13:20;58.83;;;17.20;;
70560;SDS011;58109;53.570;10.084;2023-02-10T04:15:48;50.30;;;16.90;;
70560;SDS011;58109;53.570;10.084;2023-02-10T04:18:20;51.70;;;17.35;;
70560;SDS011;58109;53.570;10.084;2023-02-10T04:20:49;46.13;;;17.77;;
70560;SDS011;58109;53.570;10.084;2023-02-10T04:23:19;53.10;;;18.73;;
70560;SDS011;58109;53.570;10.084;2023-02-10T04:25:47;61.08;;;18.88;;
70560;SDS011;58109;53.570;10.084;2023-02-10T04:28:12;57.20;;;18.07;;
70560;SDS011;58109;53.570;10.084;2023-02-10T04:30:38;46.97;;;17.60;;
70560;SDS011;58109;53.570;10.084;2023-02-10T04:33:03;50.70;;;18.63;;
70560;SDS011;58109;53.570;10.084;2023-02-10T04:35:31;56.33;;;19.75;;
70560;SDS011;58109;53.570;10.084;2023-02-10T04:38:01;52.42;;;18.70;;
70560;SDS011;58109;53.570;10.084;2023-02-10T04:40:28;47.03;;;19.83;;
70560;SDS011;58109;53.570;10.084;2023-02-10T04:42:54;47.20;;;18.10;;
70560;SDS011;58109;53.570;10.084;2023-02-10T04:45:20;44.10;;;18.70;;
70560;SDS011;58109;53.570;10.084;2023-02-10T04:47:45;51.00;;;19.27;;
70560;SDS011;58109;53.570;10.084;2023-02-10T04:50:11;50.20;;;19.47;;
70560;SDS011;58109;53.570;10.084;2023-02-10T04:52:41;50.75;;;19.83;;
70560;SDS011;58109;53.570;10.084;2023-02-10T04:55:11;56.53;;;20.45;;
70560;SDS011;58109;53.570;10.084;2023-02-10T04:57:39;55.00;;;20.08;;
70560;SDS011;58109;53.570;10.084;2023-02-10T05:00:04;55.23;;;20.83;;
70560;SDS011;58109;53.570;10.084;2023-02-10T05:02:30;59.60;;;21.90;;
70560;SDS011;58109;53.570;10.084;2023-02-10T05:04:56;52.83;;;19.37;;
70560;SDS011;58109;53.570;10.084;2023-02-10T05:07:21;56.53;;;19.93;;
70560;SDS011;58109;53.570;10.084;2023-02-10T05:09:47;73.13;;;21.57;;
70560;SDS011;58109;53.570;10.084;2023-02-10T05:12:12;52.47;;;20.07;;
70560;SDS011;58109;53.570;10.084;2023-02-10T05:14:38;53.23;;;20.47;;
70560;SDS011;58109;53.570;10.084;2023-02-10T05:17:03;66.43;;;20.40;;
70560;SDS011;58109;53.570;10.084;2023-02-10T05:19:31;50.93;;;20.60;;
70560;SDS011;58109;53.570;10.084;2023-02-10T05:21:57;64.53;;;18.77;;
70560;SDS011;58109;53.570;10.084;2023-02-10T05:24:25;60.10;;;20.60;;
70560;SDS011;58109;53.570;10.084;2023-02-10T05:26:52;62.95;;;19.77;;
70560;SDS011;58109;53.570;10.084;2023-02-10T05:29:18;54.27;;;18.60;;
70560;SDS011;58109;53.570;10.084;2023-02-10T05:31:43;55.63;;;19.77;;
70560;SDS011;58109;53.570;10.084;2023-02-10T05:34:08;46.80;;;17.63;;
70560;SDS011;58109;53.570;10.084;2023-02-10T05:36:36;44.00;;;17.43;;
70560;SDS011;58109;53.570;10.084;2023-02-10T05:39:04;45.58;;;17.98;;
70560;SDS011;58109;53.570;10.084;2023-02-10T05:41:49;58.35;;;19.75;;
70560;SDS011;58109;53.570;10.084;2023-02-10T05:44:15;57.72;;;17.65;;
70560;SDS011;58109;53.570;10.084;2023-02-10T05:46:43;51.88;;;18.50;;
70560;SDS011;58109;53.570;10.084;2023-02-10T05:49:09;63.23;;;17.30;;
70560;SDS011;58109;53.570;10.084;2023-02-10T05:51:37;55.83;;;18.05;;
70560;SDS011;58109;53.570;10.084;2023-02-10T05:54:04;49.13;;;17.03;;
70560;SDS011;58109;53.570;10.084;2023-02-10T05:56:30;53.38;;;18.63;;
70560;SDS011;58109;53.570;10.084;2023-02-10T05:58:55;52.40;;;18.10;;
70560;SDS011;58109;53.570;10.084;2023-02-10T06:01:21;50.47;;;17.83;;
70560;SDS011;58109;53.570;10.084;2023-02-10T06:03:49;58.77;;;18.50;;
70560;SDS011;58109;53.570;10.084;2023-02-10T06:06:17;41.42;;;16.95;;
70560;SDS011;58109;53.570;10.084;2023-02-10T06:09:12;53.25;;;17.45;;
70560;SDS011;58109;53.570;10.084;2023-02-10T06:11:37;43.03;;;17.80;;
70560;SDS011;58109;53.570;10.084;2023-02-10T06:14:05;48.60;;;18.30;;
70560;SDS011;58109;53.570;10.084;2023-02-10T06:16:33;68.83;;;20.23;;
70560;SDS011;58109;53.570;10.084;2023-02-10T06:19:07;62.05;;;20.05;;
70560;SDS011;58109;53.570;10.084;2023-02-10T06:22:14;49.08;;;18.67;;
70560;SDS011;58109;53.570;10.084;2023-02-10T06:24:45;58.90;;;20.38;;
70560;SDS011;58109;53.570;10.084;2023-02-10T06:27:10;46.17;;;17.87;;
70560;SDS011;58109;53.570;10.084;2023-02-10T06:29:36;58.53;;;18.97;;
70560;SDS011;58109;53.570;10.084;2023-02-10T06:32:03;46.03;;;18.60;;
70560;SDS011;58109;53.570;10.084;2023-02-10T06:34:29;45.33;;;17.77;;
70560;SDS011;58109;53.570;10.084;2023-02-10T06:36:54;46.57;;;20.37;;
70560;SDS011;58109;53.570;10.084;2023-02-10T06:39:19;50.40;;;19.23;;
70560;SDS011;58109;53.570;10.084;2023-02-10T06:41:45;45.50;;;18.67;;
70560;SDS011;58109;53.570;10.084;2023-02-10T06:44:13;61.27;;;19.13;;
70560;SDS011;58109;53.570;10.084;2023-02-10T06:46:38;54.70;;;16.80;;
70560;SDS011;58109;53.570;10.084;2023-02-10T06:49:04;47.93;;;17.60;;
70560;SDS011;58109;53.570;10.084;2023-02-10T06:51:31;50.85;;;18.77;;
70560;SDS011;58109;53.570;10.084;2023-02-10T06:53:59;50.17;;;19.10;;
70560;SDS011;58109;53.570;10.084;2023-02-10T06:56:30;50.10;;;18.70;;
70560;SDS011;58109;53.570;10.084;2023-02-10T06:58:57;49.00;;;19.17;;
70560;SDS011;58109;53.570;10.084;2023-02-10T07:01:23;51.35;;;18.48;;
70560;SDS011;58109;53.570;10.084;2023-02-10T07:03:48;55.13;;;18.23;;
70560;SDS011;58109;53.570;10.084;2023-02-10T07:06:16;47.63;;;20.30;;
70560;SDS011;58109;53.570;10.084;2023-02-10T07:08:43;50.17;;;18.42;;
70560;SDS011;58109;53.570;10.084;2023-02-10T07:11:09;69.80;;;20.17;;
70560;SDS011;58109;53.570;10.084;2023-02-10T07:13:34;64.83;;;21.97;;
70560;SDS011;58109;53.570;10.084;2023-02-10T07:15:59;64.00;;;20.50;;
70560;SDS011;58109;53.570;10.084;2023-02-10T07:18:27;51.47;;;20.07;;
70560;SDS011;58109;53.570;10.084;2023-02-10T07:20:55;65.97;;;21.02;;
70560;SDS011;58109;53.570;10.084;2023-02-10T07:23:23;51.30;;;20.63;;
70560;SDS011;58109;53.570;10.084;2023-02-10T07:25:48;57.80;;;20.07;;
70560;SDS011;58109;53.570;10.084;2023-02-10T07:28:16;56.20;;;20.17;;
70560;SDS011;58109;53.570;10.084;2023-02-10T07:30:41;61.30;;;20.50;;
70560;SDS011;58109;53.570;10.084;2023-02-10T07:33:07;52.57;;;21.70;;
70560;SDS011;58109;53.570;10.084;2023-02-10T07:35:35;63.15;;;21.35;;
70560;SDS011;58109;53.570;10.084;2023-02-10T07:38:00;77.50;;;22.33;;
70560;SDS011;58109;53.570;10.084;2023-02-10T07:40:25;72.23;;;21.23;;
70560;SDS011;58109;53.570;10.084;2023-02-10T07:42:53;74.30;;;21.33;;
70560;SDS011;58109;53.570;10.084;2023-02-10T07:45:19;60.97;;;20.83;;
70560;SDS011;58109;53.570;10.084;2023-02-10T07:47:44;73.23;;;22.00;;
70560;SDS011;58109;53.570;10.084;2023-02-10T07:50:10;59.83;;;20.33;;
70560;SDS011;58109;53.570;10.084;2023-02-10T07:52:35;61.23;;;20.20;;
70560;SDS011;58109;53.570;10.084;2023-02-10T07:55:00;52.33;;;20.57;;
70560;SDS011;58109;53.570;10.084;2023-02-10T07:57:29;52.42;;;20.15;;
70560;SDS011;58109;53.570;10.084;2023-02-10T07:59:55;47.77;;;19.10;;
70560;SDS011;58109;53.570;10.084;2023-02-10T08:02:20;55.93;;;18.70;;
70560;SDS011;58109;53.570;10.084;2023-02-10T08:04:45;58.67;;;20.00;;
70560;SDS011;58109;53.570;10.084;2023-02-10T08:07:13;62.47;;;19.17;;
70560;SDS011;58109;53.570;10.084;2023-02-10T08:09:39;49.27;;;19.90;;
70560;SDS011;58109;53.570;10.084;2023-02-10T08:12:05;53.30;;;19.00;;
70560;SDS011;58109;53.570;10.084;2023-02-10T08:14:30;62.50;;;20.17;;
70560;SDS011;58109;53.570;10.084;2023-02-10T08:17:11;57.05;;;19.55;;
70560;SDS011;58109;53.570;10.084;2023-02-10T08:19:39;56.40;;;20.20;;
70560;SDS011;58109;53.570;10.084;2023-02-10T08:22:04;68.20;;;19.53;;
70560;SDS011;58109;53.570;10.084;2023-02-10T08:24:34;53.20;;;18.80;;
70560;SDS011;58109;53.570;10.084;2023-02-10T08:27:00;61.08;;;18.83;;
70560;SDS011;58109;53.570;10.084;2023-02-10T08:29:25;64.53;;;19.83;;
70560;SDS011;58109;53.570;10.084;2023-02-10T08:31:53;64.73;;;19.83;;
70560;SDS011;58109;53.570;10.084;2023-02-10T08:34:19;50.45;;;19.55;;
70560;SDS011;58109;53.570;10.084;2023-02-10T08:36:48;73.80;;;19.38;;
70560;SDS011;58109;53.570;10.084;2023-02-10T08:39:18;49.97;;;19.15;;
70560;SDS011;58109;53.570;10.084;2023-02-10T08:41:49;63.65;;;19.77;;
70560;SDS011;58109;53.570;10.084;2023-02-10T08:44:16;51.95;;;19.48;;
70560;SDS011;58109;53.570;10.084;2023-02-10T08:46:42;68.13;;;18.63;;
70560;SDS011;58109;53.570;10.084;2023-02-10T08:49:07;44.40;;;17.83;;
70560;SDS011;58109;53.570;10.084;2023-02-10T08:51:32;57.70;;;18.63;;
70560;SDS011;58109;53.570;10.084;2023-02-10T08:54:01;49.40;;;17.77;;
70560;SDS011;58109;53.570;10.084;2023-02-10T08:56:28;58.47;;;18.95;;
70560;SDS011;58109;53.570;10.084;2023-02-10T08:58:53;56.33;;;19.67;;
70560;SDS011;58109;53.570;10.084;2023-02-10T09:01:21;56.67;;;17.90;;
70560;SDS011;58109;53.570;10.084;2023-02-10T09:03:50;52.88;;;19.02;;
70560;SDS011;58109;53.570;10.084;2023-02-10T09:06:19;57.00;;;18.53;;
70560;SDS011;58109;53.570;10.084;2023-02-10T09:08:50;59.83;;;18.92;;
70560;SDS011;58109;53.570;10.084;2023-02-10T09:11:19;57.70;;;19.98;;
70560;SDS011;58109;53.570;10.084;2023-02-10T09:13:46;54.45;;;20.00;;
70560;SDS011;58109;53.570;10.084;2023-02-10T09:16:12;45.57;;;19.93;;
70560;SDS011;58109;53.570;10.084;2023-02-10T09:18:40;58.77;;;20.67;;
70560;SDS011;58109;53.570;10.084;2023-02-10T09:21:05;53.72;;;21.50;;
70560;SDS011;58109;53.570;10.084;2023-02-10T09:23:30;59.67;;;20.90;;
70560;SDS011;58109;53.570;10.084;2023-02-10T09:25:59;59.95;;;20.92;;
70560;SDS011;58109;53.570;10.084;2023-02-10T09:28:25;74.13;;;22.23;;
70560;SDS011;58109;53.570;10.084;2023-02-10T09:30:56;64.78;;;21.60;;
70560;SDS011;58109;53.570;10.084;2023-02-10T09:33:21;79.38;;;24.45;;
70560;SDS011;58109;53.570;10.084;2023-02-10T09:35:48;62.22;;;24.15;;
70560;SDS011;58109;53.570;10.084;2023-02-10T09:38:16;72.72;;;24.60;;
70560;SDS011;58109;53.570;10.084;2023-02-10T09:40:50;66.03;;;25.20;;
70560;SDS011;58109;53.570;10.084;2023-02-10T09:46:13;75.45;;;25.08;;
70560;SDS011;58109;53.570;10.084;2023-02-10T09:51:47;77.45;;;27.20;;
70560;SDS011;58109;53.570;10.084;2023-02-10T09:54:23;76.78;;;25.83;;
70560;SDS011;58109;53.570;10.084;2023-02-10T09:56:48;68.50;;;23.77;;
70560;SDS011;58109;53.570;10.084;2023-02-10T09:59:15;73.03;;;22.93;;
70560;SDS011;58109;53.570;10.084;2023-02-10T10:01:43;65.88;;;21.20;;
70560;SDS011;58109;53.570;10.084;2023-02-10T10:04:18;53.58;;;21.20;;
70560;SDS011;58109;53.570;10.084;2023-02-10T10:06:45;64.93;;;21.38;;
70560;SDS011;58109;53.570;10.084;2023-02-10T10:11:54;57.30;;;20.77;;
70560;SDS011;58109;53.570;10.084;2023-02-10T10:14:29;68.40;;;19.97;;
70560;SDS011;58109;53.570;10.084;2023-02-10T10:31:03;64.53;;;21.30;;
70560;SDS011;58109;53.570;10.084;2023-02-10T10:36:13;53.00;;;21.30;;
70560;SDS011;58109;53.570;10.084;2023-02-10T10:38:53;65.13;;;21.52;;
70560;SDS011;58109;53.570;10.084;2023-02-10T10:41:23;57.25;;;22.27;;
70560;SDS011;58109;53.570;10.084;2023-02-10T10:43:54;57.95;;;23.40;;
70560;SDS011;58109;53.570;10.084;2023-02-10T10:49:09;56.63;;;23.33;;
70560;SDS011;58109;53.570;10.084;2023-02-10T10:51:34;55.75;;;24.25;;
70560;SDS011;58109;53.570;10.084;2023-02-10T10:54:00;65.40;;;22.10;;
70560;SDS011;58109;53.570;10.084;2023-02-10T10:59:18;52.03;;;22.30;;
70560;SDS011;58109;53.570;10.084;2023-02-10T11:01:49;69.03;;;22.42;;
70560;SDS011;58109;53.570;10.084;2023-02-10T11:04:24;54.70;;;22.50;;
70560;SDS011;58109;53.570;10.084;2023-02-10T11:06:52;62.70;;;23.13;;
70560;SDS011;58109;53.570;10.084;2023-02-10T11:09:20;58.30;;;22.92;;
70560;SDS011;58109;53.570;10.084;2023-02-10T11:12:03;62.30;;;23.20;;
70560;SDS011;58109;53.570;10.084;2023-02-10T11:14:29;71.75;;;24.25;;
70560;SDS011;58109;53.570;10.084;2023-02-10T11:17:01;59.40;;;22.25;;
70560;SDS011;58109;53.570;10.084;2023-02-10T11:19:30;53.35;;;24.40;;
70560;SDS011;58109;53.570;10.084;2023-02-10T11:22:02;53.08;;;19.98;;
70560;SDS011;58109;53.570;10.084;2023-02-10T11:24:47;50.38;;;20.73;;
70560;SDS011;58109;53.570;10.084;2023-02-10T11:27:15;51.07;;;20.63;;
70560;SDS011;58109;53.570;10.084;2023-02-10T11:29:57;54.45;;;21.25;;
70560;SDS011;58109;53.570;10.084;2023-02-10T11:34:54;57.92;;;20.48;;
70560;SDS011;58109;53.570;10.084;2023-02-10T11:37:37;39.77;;;19.13;;
70560;SDS011;58109;53.570;10.084;2023-02-10T11:40:15;53.03;;;21.90;;
70560;SDS011;58109;53.570;10.084;2023-02-10T11:42:46;47.63;;;20.33;;
70560;SDS011;58109;53.570;10.084;2023-02-10T11:45:17;47.77;;;19.97;;
70560;SDS011;58109;53.570;10.084;2023-02-10T11:47:45;51.03;;;19.33;;
70560;SDS011;58109;53.570;10.084;2023-02-10T11:50:24;50.37;;;20.87;;
70560;SDS011;58109;53.570;10.084;2023-02-10T11:52:53;56.63;;;18.97;;
70560;SDS011;58109;53.570;10.084;2023-02-10T11:55:19;49.13;;;18.00;;
70560;SDS011;58109;53.570;10.084;2023-02-10T11:57:49;43.53;;;17.63;;
70560;SDS011;58109;53.570;10.084;2023-02-10T12:00:46;41.33;;;16.30;;
70560;SDS011;58109;53.570;10.084;2023-02-10T12:06:44;43.33;;;16.37;;
70560;SDS011;58109;53.570;10.084;2023-02-10T12:09:08;32.50;;;14.57;;
70560;SDS011;58109;53.570;10.084;2023-02-10T12:14:38;37.63;;;14.37;;
70560;SDS011;58109;53.570;10.084;2023-02-10T12:17:20;37.93;;;13.40;;
70560;SDS011;58109;53.570;10.084;2023-02-10T12:22:35;42.58;;;14.82;;
70560;SDS011;58109;53.570;10.084;2023-02-10T12:25:23;33.27;;;12.67;;
70560;SDS011;58109;53.570;10.084;2023-02-10T12:30:46;46.87;;;12.93;;
70560;SDS011;58109;53.570;10.084;2023-02-10T12:43:52;23.37;;;9.97;;
70560;SDS011;58109;53.570;10.084;2023-02-10T12:52:11;30.33;;;10.20;;
70560;SDS011;58109;53.570;10.084;2023-02-10T12:54:57;31.17;;;11.70;;
70560;SDS011;58109;53.570;10.084;2023-02-10T13:00:15;38.30;;;10.00;;
70560;SDS011;58109;53.570;10.084;2023-02-10T13:02:50;28.33;;;9.57;;
70560;SDS011;58109;53.570;10.084;2023-02-10T13:05:18;36.57;;;10.73;;
70560;SDS011;58109;53.570;10.084;2023-02-10T13:13:12;31.90;;;9.80;;
70560;SDS011;58109;53.570;10.084;2023-02-10T13:15:43;23.47;;;9.00;;
70560;SDS011;58109;53.570;10.084;2023-02-10T13:18:22;31.37;;;9.07;;
70560;SDS011;58109;53.570;10.084;2023-02-10T13:23:41;26.40;;;9.83;;
70560;SDS011;58109;53.570;10.084;2023-02-10T13:26:19;23.93;;;8.50;;
70560;SDS011;58109;53.570;10.084;2023-02-10T13:34:35;20.60;;;8.53;;
70560;SDS011;58109;53.570;10.084;2023-02-10T13:39:56;29.30;;;9.10;;
70560;SDS011;58109;53.570;10.084;2023-02-10T13:42:36;24.23;;;9.33;;
70560;SDS011;58109;53.570;10.084;2023-02-10T13:47:38;27.00;;;9.97;;
70560;SDS011;58109;53.570;10.084;2023-02-10T13:57:55;33.33;;;10.10;;
70560;SDS011;58109;53.570;10.084;2023-02-10T14:00:26;29.17;;;10.03;;
70560;SDS011;58109;53.570;10.084;2023-02-10T14:03:03;30.37;;;9.87;;
70560;SDS011;58109;53.570;10.084;2023-02-10T14:08:39;22.97;;;9.20;;
70560;SDS011;58109;53.570;10.084;2023-02-10T14:16:51;22.70;;;9.30;;
70560;SDS011;58109;53.570;10.084;2023-02-10T14:21:47;31.70;;;10.50;;
70560;SDS011;58109;53.570;10.084;2023-02-10T14:24:22;34.77;;;10.40;;
70560;SDS011;58109;53.570;10.084;2023-02-10T14:26:50;28.17;;;9.90;;
70560;SDS011;58109;53.570;10.084;2023-02-10T14:29:18;30.90;;;10.00;;
70560;SDS011;58109;53.570;10.084;2023-02-10T14:31:51;23.73;;;8.00;;
70560;SDS011;58109;53.570;10.084;2023-02-10T14:39:20;24.57;;;9.80;;
70560;SDS011;58109;53.570;10.084;2023-02-10T14:41:53;27.33;;;9.80;;
70560;SDS011;58109;53.570;10.084;2023-02-10T14:47:21;42.07;;;10.93;;
70560;SDS011;58109;53.570;10.084;2023-02-10T14:49:58;28.53;;;9.47;;
70560;SDS011;58109;53.570;10.084;2023-02-10T14:52:34;25.03;;;10.10;;
70560;SDS011;58109;53.570;10.084;2023-02-10T14:55:16;21.83;;;10.33;;
70560;SDS011;58109;53.570;10.084;2023-02-10T14:57:50;30.20;;;8.97;;
70560;SDS011;58109;53.570;10.084;2023-02-10T15:00:18;31.03;;;10.00;;
70560;SDS011;58109;53.570;10.084;2023-02-10T15:02:48;25.23;;;8.97;;
70560;SDS011;58109;53.570;10.084;2023-02-10T15:05:18;23.30;;;8.73;;
70560;SDS011;58109;53.570;10.084;2023-02-10T15:07:49;19.70;;;8.80;;
70560;SDS011;58109;53.570;10.084;2023-02-10T15:10:35;22.60;;;8.53;;
70560;SDS011;58109;53.570;10.084;2023-02-10T15:13:07;26.00;;;8.47;;
70560;SDS011;58109;53.570;10.084;2023-02-10T15:15:36;25.13;;;9.33;;
70560;SDS011;58109;53.570;10.084;2023-02-10T15:18:05;32.77;;;9.87;;
70560;SDS011;58109;53.570;10.084;2023-02-10T15:20:33;20.67;;;8.77;;
70560;SDS011;58109;53.570;10.084;2023-02-10T15:30:41;32.47;;;10.73;;
70560;SDS011;58109;53.570;10.084;2023-02-10T15:33:17;39.27;;;12.03;;
70560;SDS011;58109;53.570;10.084;2023-02-10T15:38:40;24.70;;;9.87;;
70560;SDS011;58109;53.570;10.084;2023-02-10T15:41:56;27.77;;;11.10;;
70560;SDS011;58109;53.570;10.084;2023-02-10T15:46:46;30.17;;;11.93;;
70560;SDS011;58109;53.570;10.084;2023-02-10T15:49:38;45.03;;;11.63;;
70560;SDS011;58109;53.570;10.084;2023-02-10T15:52:03;36.07;;;12.30;;
70560;SDS011;58109;53.570;10.084;2023-02-10T15:54:29;41.87;;;13.80;;
70560;SDS011;58109;53.570;10.084;2023-02-10T15:56:59;30.37;;;12.50;;
70560;SDS011;58109;53.570;10.084;2023-02-10T15:59:30;29.93;;;13.43;;
70560;SDS011;58109;53.570;10.084;2023-02-10T16:01:56;37.40;;;12.80;;
70560;SDS011;58109;53.570;10.084;2023-02-10T16:04:26;34.47;;;12.43;;
70560;SDS011;58109;53.570;10.084;2023-02-10T16:06:58;32.20;;;13.63;;
70560;SDS011;58109;53.570;10.084;2023-02-10T16:09:24;32.47;;;12.40;;
70560;SDS011;58109;53.570;10.084;2023-02-10T16:11:49;32.83;;;13.40;;
70560;SDS011;58109;53.570;10.084;2023-02-10T16:14:15;43.80;;;13.57;;
70560;SDS011;58109;53.570;10.084;2023-02-10T16:16:44;37.80;;;15.67;;
70560;SDS011;58109;53.570;10.084;2023-02-10T16:19:17;36.30;;;14.03;;
70560;SDS011;58109;53.570;10.084;2023-02-10T16:21:43;47.47;;;14.53;;
70560;SDS011;58109;53.570;10.084;2023-02-10T16:24:12;33.90;;;14.23;;
70560;SDS011;58109;53.570;10.084;2023-02-10T16:26:39;31.77;;;14.80;;
70560;SDS011;58109;53.570;10.084;2023-02-10T16:29:07;39.97;;;15.60;;
70560;SDS011;58109;53.570;10.084;2023-02-10T16:31:42;44.23;;;15.30;;
70560;SDS011;58109;53.570;10.084;2023-02-10T16:34:11;28.20;;;14.37;;
70560;SDS011;58109;53.570;10.084;2023-02-10T16:36:38;35.33;;;15.30;;
70560;SDS011;58109;53.570;10.084;2023-02-10T16:39:04;41.03;;;16.30;;
70560;SDS011;58109;53.570;10.084;2023-02-10T16:41:33;33.50;;;15.93;;
70560;SDS011;58109;53.570;10.084;2023-02-10T16:43:58;26.30;;;13.87;;
70560;SDS011;58109;53.570;10.084;2023-02-10T16:46:26;42.33;;;16.20;;
70560;SDS011;58109;53.570;10.084;2023-02-10T16:48:51;29.97;;;13.77;;